sensor_id;sensor_type;location;lat;lon;timestamp;P1;durP1;ratioP1;P2;durP2;ratioP2
49584;SDS011;35491;49.142;9.210;2022-11-15T00:00:11;4.95;;;3.03;;
49584;SDS011;35491;49.142;9.210;2022-11-15T00:01:16;6.18;;;3.10;;
49584;SDS011;35491;49.142;9.210;2022-11-15T00:02:21;5.68;;;3.20;;
49584;SDS011;35491;49.142;9.210;2022-11-15T00:03:26;5.25;;;2.85;;
49584;SDS011;35491;49.142;9.210;2022-11-15T00:04:37;7.10;;;2.60;;
49584;SDS011;35491;49.142;9.210;2022-11-15T00:05:41;5.00;;;2.60;;
49584;SDS011;35491;49.142;9.210;2022-11-15T00:06:44;5.28;;;2.75;;
49584;SDS011;35491;49.142;9.210;2022-11-15T00:07:49;5.75;;;2.45;;
49584;SDS011;35491;49.142;9.210;2022-11-15T00:08:53;4.93;;;2.60;;
49584;SDS011;35491;49.142;9.210;2022-11-15T00:09:58;5.95;;;2.90;;
49584;SDS011;35491;49.142;9.210;2022-11-15T00:11:01;6.50;;;2.78;;
49584;SDS011;35491;49.142;9.210;2022-11-15T00:12:06;6.07;;;2.63;;
49584;SDS011;35491;49.142;9.210;2022-11-15T00:13:09;5.03;;;2.47;;
49584;SDS011;35491;49.142;9.210;2022-11-15T00:14:17;4.85;;;2.78;;
49584;SDS011;35491;49.142;9.210;2022-11-15T00:15:20;5.82;;;2.50;;
49584;SDS011;35491;49.142;9.210;2022-11-15T00:16:25;4.78;;;2.40;;
49584;SDS011;35491;49.142;9.210;2022-11-15T00:17:32;4.55;;;2.42;;
49584;SDS011;35491;49.142;9.210;2022-11-15T00:18:37;4.65;;;2.15;;
49584;SDS011;35491;49.142;9.210;2022-11-15T00:20:50;6.63;;;2.78;;
49584;SDS011;35491;49.142;9.210;2022-11-15T00:22:00;5.05;;;2.58;;
49584;SDS011;35491;49.142;9.210;2022-11-15T00:23:04;5.47;;;2.60;;
49584;SDS011;35491;49.142;9.210;2022-11-15T00:24:08;6.18;;;2.45;;
49584;SDS011;35491;49.142;9.210;2022-11-15T00:25:13;4.75;;;2.40;;
49584;SDS011;35491;49.142;9.210;2022-11-15T00:26:17;7.72;;;2.95;;
49584;SDS011;35491;49.142;9.210;2022-11-15T00:27:21;8.05;;;2.65;;
49584;SDS011;35491;49.142;9.210;2022-11-15T00:56:38;5.97;;;2.40;;
49584;SDS011;35491;49.142;9.210;2022-11-15T00:57:43;5.43;;;2.80;;
49584;SDS011;35491;49.142;9.210;2022-11-15T00:58:49;4.35;;;2.30;;
49584;SDS011;35491;49.142;9.210;2022-11-15T00:59:53;5.80;;;2.25;;
49584;SDS011;35491;49.142;9.210;2022-11-15T01:00:54;4.18;;;2.15;;
49584;SDS011;35491;49.142;9.210;2022-11-15T01:01:58;5.65;;;2.40;;
49584;SDS011;35491;49.142;9.210;2022-11-15T01:03:00;6.45;;;2.78;;
49584;SDS011;35491;49.142;9.210;2022-11-15T01:04:04;5.95;;;1.92;;
49584;SDS011;35491;49.142;9.210;2022-11-15T01:05:06;4.80;;;2.30;;
49584;SDS011;35491;49.142;9.210;2022-11-15T01:06:10;4.47;;;2.08;;
49584;SDS011;35491;49.142;9.210;2022-11-15T01:07:12;4.47;;;2.40;;
49584;SDS011;35491;49.142;9.210;2022-11-15T01:08:16;4.85;;;2.30;;
49584;SDS011;35491;49.142;9.210;2022-11-15T01:09:40;3.80;;;1.92;;
49584;SDS011;35491;49.142;9.210;2022-11-15T01:20:13;4.05;;;2.10;;
49584;SDS011;35491;49.142;9.210;2022-11-15T01:36:57;5.22;;;2.35;;
49584;SDS011;35491;49.142;9.210;2022-11-15T01:38:05;6.60;;;2.13;;
49584;SDS011;35491;49.142;9.210;2022-11-15T01:39:08;4.78;;;2.63;;
49584;SDS011;35491;49.142;9.210;2022-11-15T01:40:19;6.88;;;2.83;;
49584;SDS011;35491;49.142;9.210;2022-11-15T01:41:32;5.65;;;2.28;;
49584;SDS011;35491;49.142;9.210;2022-11-15T01:42:37;5.20;;;2.90;;
49584;SDS011;35491;49.142;9.210;2022-11-15T01:43:38;6.00;;;2.90;;
49584;SDS011;35491;49.142;9.210;2022-11-15T01:44:44;5.60;;;2.55;;
49584;SDS011;35491;49.142;9.210;2022-11-15T01:45:49;5.85;;;3.17;;
49584;SDS011;35491;49.142;9.210;2022-11-15T01:46:57;5.88;;;2.80;;
49584;SDS011;35491;49.142;9.210;2022-11-15T01:48:00;5.65;;;2.60;;
49584;SDS011;35491;49.142;9.210;2022-11-15T01:49:05;4.55;;;2.50;;
49584;SDS011;35491;49.142;9.210;2022-11-15T01:50:14;6.25;;;3.08;;
49584;SDS011;35491;49.142;9.210;2022-11-15T01:51:21;5.55;;;2.53;;
49584;SDS011;35491;49.142;9.210;2022-11-15T01:52:30;5.70;;;2.35;;
49584;SDS011;35491;49.142;9.210;2022-11-15T01:53:37;5.43;;;2.50;;
49584;SDS011;35491;49.142;9.210;2022-11-15T01:54:42;6.13;;;2.85;;
49584;SDS011;35491;49.142;9.210;2022-11-15T01:55:46;5.22;;;2.40;;
49584;SDS011;35491;49.142;9.210;2022-11-15T01:56:49;6.15;;;3.15;;
49584;SDS011;35491;49.142;9.210;2022-11-15T01:57:57;7.10;;;2.83;;
49584;SDS011;35491;49.142;9.210;2022-11-15T01:59:04;6.38;;;3.05;;
49584;SDS011;35491;49.142;9.210;2022-11-15T02:00:12;5.85;;;2.78;;
49584;SDS011;35491;49.142;9.210;2022-11-15T02:01:14;5.25;;;2.72;;
49584;SDS011;35491;49.142;9.210;2022-11-15T02:02:19;5.28;;;2.55;;
49584;SDS011;35491;49.142;9.210;2022-11-15T02:03:21;7.93;;;3.08;;
49584;SDS011;35491;49.142;9.210;2022-11-15T02:04:31;6.35;;;2.75;;
49584;SDS011;35491;49.142;9.210;2022-11-15T02:05:35;6.90;;;2.92;;
49584;SDS011;35491;49.142;9.210;2022-11-15T02:06:41;6.47;;;2.80;;
49584;SDS011;35491;49.142;9.210;2022-11-15T02:07:46;7.20;;;2.92;;
49584;SDS011;35491;49.142;9.210;2022-11-15T02:08:52;9.38;;;3.05;;
49584;SDS011;35491;49.142;9.210;2022-11-15T02:09:54;4.78;;;2.63;;
49584;SDS011;35491;49.142;9.210;2022-11-15T02:10:58;5.32;;;2.83;;
49584;SDS011;35491;49.142;9.210;2022-11-15T02:12:00;8.07;;;3.22;;
49584;SDS011;35491;49.142;9.210;2022-11-15T02:13:04;4.85;;;2.90;;
49584;SDS011;35491;49.142;9.210;2022-11-15T02:14:05;8.30;;;3.30;;
49584;SDS011;35491;49.142;9.210;2022-11-15T02:15:11;6.88;;;4.07;;
49584;SDS011;35491;49.142;9.210;2022-11-15T02:38:28;5.75;;;3.65;;
49584;SDS011;35491;49.142;9.210;2022-11-15T02:39:46;8.60;;;3.15;;
49584;SDS011;35491;49.142;9.210;2022-11-15T02:40:53;5.75;;;2.90;;
49584;SDS011;35491;49.142;9.210;2022-11-15T02:42:03;5.05;;;2.88;;
49584;SDS011;35491;49.142;9.210;2022-11-15T02:43:34;5.65;;;2.92;;
49584;SDS011;35491;49.142;9.210;2022-11-15T02:44:55;5.05;;;2.65;;
49584;SDS011;35491;49.142;9.210;2022-11-15T02:46:03;4.43;;;2.53;;
49584;SDS011;35491;49.142;9.210;2022-11-15T02:47:09;5.15;;;2.60;;
49584;SDS011;35491;49.142;9.210;2022-11-15T02:48:19;5.72;;;2.72;;
49584;SDS011;35491;49.142;9.210;2022-11-15T02:49:29;8.55;;;3.10;;
49584;SDS011;35491;49.142;9.210;2022-11-15T02:50:37;5.07;;;2.72;;
49584;SDS011;35491;49.142;9.210;2022-11-15T02:51:40;5.45;;;2.42;;
49584;SDS011;35491;49.142;9.210;2022-11-15T03:31:43;5.13;;;2.92;;
49584;SDS011;35491;49.142;9.210;2022-11-15T03:32:51;7.00;;;3.28;;
49584;SDS011;35491;49.142;9.210;2022-11-15T03:34:03;5.93;;;3.00;;
49584;SDS011;35491;49.142;9.210;2022-11-15T03:35:09;6.07;;;3.30;;
49584;SDS011;35491;49.142;9.210;2022-11-15T03:36:15;5.38;;;3.03;;
49584;SDS011;35491;49.142;9.210;2022-11-15T03:37:20;5.38;;;3.08;;
49584;SDS011;35491;49.142;9.210;2022-11-15T03:38:25;5.32;;;2.70;;
49584;SDS011;35491;49.142;9.210;2022-11-15T03:39:30;5.20;;;2.83;;
49584;SDS011;35491;49.142;9.210;2022-11-15T03:40:35;5.40;;;2.60;;
49584;SDS011;35491;49.142;9.210;2022-11-15T03:41:40;6.03;;;3.30;;
49584;SDS011;35491;49.142;9.210;2022-11-15T03:42:51;6.20;;;3.70;;
49584;SDS011;35491;49.142;9.210;2022-11-15T03:43:59;6.72;;;3.53;;
49584;SDS011;35491;49.142;9.210;2022-11-15T03:45:13;5.70;;;3.10;;
49584;SDS011;35491;49.142;9.210;2022-11-15T03:46:24;7.43;;;3.70;;
49584;SDS011;35491;49.142;9.210;2022-11-15T03:47:29;7.43;;;3.90;;
49584;SDS011;35491;49.142;9.210;2022-11-15T03:48:39;6.53;;;3.08;;
49584;SDS011;35491;49.142;9.210;2022-11-15T03:49:46;6.88;;;3.33;;
49584;SDS011;35491;49.142;9.210;2022-11-15T03:50:55;6.50;;;4.00;;
49584;SDS011;35491;49.142;9.210;2022-11-15T03:51:57;4.93;;;2.95;;
49584;SDS011;35491;49.142;9.210;2022-11-15T03:53:02;6.18;;;3.38;;
49584;SDS011;35491;49.142;9.210;2022-11-15T03:54:04;6.90;;;3.72;;
49584;SDS011;35491;49.142;9.210;2022-11-15T03:55:10;6.38;;;3.22;;
49584;SDS011;35491;49.142;9.210;2022-11-15T03:56:13;6.82;;;3.45;;
49584;SDS011;35491;49.142;9.210;2022-11-15T03:57:17;9.05;;;3.75;;
49584;SDS011;35491;49.142;9.210;2022-11-15T03:58:19;6.28;;;3.28;;
49584;SDS011;35491;49.142;9.210;2022-11-15T03:59:23;5.57;;;3.20;;
49584;SDS011;35491;49.142;9.210;2022-11-15T04:00:24;7.28;;;3.22;;
49584;SDS011;35491;49.142;9.210;2022-11-15T04:01:31;7.15;;;3.10;;
49584;SDS011;35491;49.142;9.210;2022-11-15T04:02:33;6.20;;;3.55;;
49584;SDS011;35491;49.142;9.210;2022-11-15T04:03:37;5.97;;;3.35;;
49584;SDS011;35491;49.142;9.210;2022-11-15T04:04:38;5.60;;;2.83;;
49584;SDS011;35491;49.142;9.210;2022-11-15T04:05:43;6.60;;;3.75;;
49584;SDS011;35491;49.142;9.210;2022-11-15T04:06:44;6.50;;;3.42;;
49584;SDS011;35491;49.142;9.210;2022-11-15T04:07:48;7.97;;;4.10;;
49584;SDS011;35491;49.142;9.210;2022-11-15T04:08:50;6.75;;;3.85;;
49584;SDS011;35491;49.142;9.210;2022-11-15T04:09:54;5.75;;;3.20;;
49584;SDS011;35491;49.142;9.210;2022-11-15T04:11:06;6.50;;;3.60;;
49584;SDS011;35491;49.142;9.210;2022-11-15T04:12:10;5.90;;;3.50;;
49584;SDS011;35491;49.142;9.210;2022-11-15T04:13:11;5.72;;;3.47;;
49584;SDS011;35491;49.142;9.210;2022-11-15T04:14:15;8.27;;;3.75;;
49584;SDS011;35491;49.142;9.210;2022-11-15T04:15:17;5.75;;;3.20;;
49584;SDS011;35491;49.142;9.210;2022-11-15T04:16:23;6.90;;;3.45;;
49584;SDS011;35491;49.142;9.210;2022-11-15T04:17:27;7.20;;;3.65;;
49584;SDS011;35491;49.142;9.210;2022-11-15T04:18:31;7.85;;;4.03;;
49584;SDS011;35491;49.142;9.210;2022-11-15T04:19:35;7.03;;;3.97;;
49584;SDS011;35491;49.142;9.210;2022-11-15T04:20:52;7.78;;;3.58;;
49584;SDS011;35491;49.142;9.210;2022-11-15T04:22:08;8.70;;;4.35;;
49584;SDS011;35491;49.142;9.210;2022-11-15T04:23:25;6.10;;;3.97;;
49584;SDS011;35491;49.142;9.210;2022-11-15T04:24:41;6.38;;;3.78;;
49584;SDS011;35491;49.142;9.210;2022-11-15T04:25:45;6.10;;;3.95;;
49584;SDS011;35491;49.142;9.210;2022-11-15T04:26:50;7.03;;;3.65;;
49584;SDS011;35491;49.142;9.210;2022-11-15T04:27:54;6.05;;;3.53;;
49584;SDS011;35491;49.142;9.210;2022-11-15T04:28:56;5.75;;;3.47;;
49584;SDS011;35491;49.142;9.210;2022-11-15T04:30:13;5.97;;;3.80;;
49584;SDS011;35491;49.142;9.210;2022-11-15T04:31:17;6.95;;;3.80;;
49584;SDS011;35491;49.142;9.210;2022-11-15T04:32:18;6.63;;;3.17;;
49584;SDS011;35491;49.142;9.210;2022-11-15T04:33:25;5.10;;;3.13;;
49584;SDS011;35491;49.142;9.210;2022-11-15T04:34:29;5.20;;;2.72;;
49584;SDS011;35491;49.142;9.210;2022-11-15T04:35:31;5.60;;;2.95;;
49584;SDS011;35491;49.142;9.210;2022-11-15T04:36:35;6.50;;;3.47;;
49584;SDS011;35491;49.142;9.210;2022-11-15T04:37:51;6.78;;;3.78;;
49584;SDS011;35491;49.142;9.210;2022-11-15T04:38:53;7.47;;;3.13;;
49584;SDS011;35491;49.142;9.210;2022-11-15T04:39:57;6.45;;;3.33;;
49584;SDS011;35491;49.142;9.210;2022-11-15T04:40:58;6.22;;;3.70;;
49584;SDS011;35491;49.142;9.210;2022-11-15T04:42:03;5.40;;;2.63;;
49584;SDS011;35491;49.142;9.210;2022-11-15T04:43:04;5.55;;;2.83;;
49584;SDS011;35491;49.142;9.210;2022-11-15T04:44:18;6.05;;;2.88;;
49584;SDS011;35491;49.142;9.210;2022-11-15T04:45:20;5.38;;;2.80;;
49584;SDS011;35491;49.142;9.210;2022-11-15T04:46:30;5.90;;;3.28;;
49584;SDS011;35491;49.142;9.210;2022-11-15T04:47:31;7.35;;;3.20;;
49584;SDS011;35491;49.142;9.210;2022-11-15T04:48:38;6.13;;;3.45;;
49584;SDS011;35491;49.142;9.210;2022-11-15T04:49:39;5.72;;;3.30;;
49584;SDS011;35491;49.142;9.210;2022-11-15T04:50:47;6.63;;;3.60;;
49584;SDS011;35491;49.142;9.210;2022-11-15T04:51:50;6.60;;;3.28;;
49584;SDS011;35491;49.142;9.210;2022-11-15T04:52:54;5.80;;;2.92;;
49584;SDS011;35491;49.142;9.210;2022-11-15T04:53:58;5.03;;;2.85;;
49584;SDS011;35491;49.142;9.210;2022-11-15T04:55:00;5.22;;;3.00;;
49584;SDS011;35491;49.142;9.210;2022-11-15T04:56:06;6.45;;;3.22;;
49584;SDS011;35491;49.142;9.210;2022-11-15T04:57:08;5.28;;;2.90;;
49584;SDS011;35491;49.142;9.210;2022-11-15T04:58:12;5.68;;;3.03;;
49584;SDS011;35491;49.142;9.210;2022-11-15T04:59:14;5.28;;;3.05;;
49584;SDS011;35491;49.142;9.210;2022-11-15T05:00:18;6.82;;;2.83;;
49584;SDS011;35491;49.142;9.210;2022-11-15T05:01:20;6.45;;;3.35;;
49584;SDS011;35491;49.142;9.210;2022-11-15T05:02:24;8.88;;;3.70;;
49584;SDS011;35491;49.142;9.210;2022-11-15T05:03:48;4.88;;;2.83;;
49584;SDS011;35491;49.142;9.210;2022-11-15T05:05:11;5.35;;;2.88;;
49584;SDS011;35491;49.142;9.210;2022-11-15T05:07:36;9.02;;;3.63;;
49584;SDS011;35491;49.142;9.210;2022-11-15T05:10:56;8.48;;;3.35;;
49584;SDS011;35491;49.142;9.210;2022-11-15T05:12:10;6.43;;;3.28;;
49584;SDS011;35491;49.142;9.210;2022-11-15T05:13:31;5.00;;;2.95;;
49584;SDS011;35491;49.142;9.210;2022-11-15T05:14:41;5.82;;;3.55;;
49584;SDS011;35491;49.142;9.210;2022-11-15T05:16:10;5.82;;;2.92;;
49584;SDS011;35491;49.142;9.210;2022-11-15T05:17:25;6.30;;;3.90;;
49584;SDS011;35491;49.142;9.210;2022-11-15T05:18:41;6.50;;;3.05;;
49584;SDS011;35491;49.142;9.210;2022-11-15T05:20:00;6.03;;;3.00;;
49584;SDS011;35491;49.142;9.210;2022-11-15T05:21:18;5.97;;;3.08;;
49584;SDS011;35491;49.142;9.210;2022-11-15T05:22:31;5.10;;;2.70;;
49584;SDS011;35491;49.142;9.210;2022-11-15T05:23:49;4.80;;;2.78;;
49584;SDS011;35491;49.142;9.210;2022-11-15T05:26:09;5.57;;;3.08;;
49584;SDS011;35491;49.142;9.210;2022-11-15T05:27:13;6.63;;;3.50;;
49584;SDS011;35491;49.142;9.210;2022-11-15T05:28:21;4.95;;;2.85;;
49584;SDS011;35491;49.142;9.210;2022-11-15T05:29:24;7.53;;;3.17;;
49584;SDS011;35491;49.142;9.210;2022-11-15T05:30:30;5.68;;;3.22;;
49584;SDS011;35491;49.142;9.210;2022-11-15T05:32:36;4.85;;;2.85;;
49584;SDS011;35491;49.142;9.210;2022-11-15T05:33:40;5.68;;;2.92;;
49584;SDS011;35491;49.142;9.210;2022-11-15T05:34:43;6.88;;;3.25;;
49584;SDS011;35491;49.142;9.210;2022-11-15T05:35:50;5.88;;;3.20;;
49584;SDS011;35491;49.142;9.210;2022-11-15T05:36:58;5.05;;;3.10;;
49584;SDS011;35491;49.142;9.210;2022-11-15T05:38:03;5.13;;;2.50;;
49584;SDS011;35491;49.142;9.210;2022-11-15T05:39:05;5.25;;;2.70;;
49584;SDS011;35491;49.142;9.210;2022-11-15T05:40:10;5.70;;;3.00;;
49584;SDS011;35491;49.142;9.210;2022-11-15T05:41:11;5.88;;;3.28;;
49584;SDS011;35491;49.142;9.210;2022-11-15T05:42:17;6.90;;;3.47;;
49584;SDS011;35491;49.142;9.210;2022-11-15T05:43:19;6.22;;;3.63;;
49584;SDS011;35491;49.142;9.210;2022-11-15T05:44:23;6.03;;;2.88;;
49584;SDS011;35491;49.142;9.210;2022-11-15T05:45:27;5.28;;;3.15;;
49584;SDS011;35491;49.142;9.210;2022-11-15T05:46:31;6.07;;;3.30;;
49584;SDS011;35491;49.142;9.210;2022-11-15T05:47:34;7.57;;;3.83;;
49584;SDS011;35491;49.142;9.210;2022-11-15T05:48:41;6.20;;;3.70;;
49584;SDS011;35491;49.142;9.210;2022-11-15T05:49:46;10.40;;;3.45;;
49584;SDS011;35491;49.142;9.210;2022-11-15T05:50:55;6.45;;;3.28;;
49584;SDS011;35491;49.142;9.210;2022-11-15T05:51:57;6.85;;;3.88;;
49584;SDS011;35491;49.142;9.210;2022-11-15T05:53:01;8.05;;;3.63;;
49584;SDS011;35491;49.142;9.210;2022-11-15T05:54:03;8.52;;;3.58;;
49584;SDS011;35491;49.142;9.210;2022-11-15T05:55:08;6.70;;;3.30;;
49584;SDS011;35491;49.142;9.210;2022-11-15T05:56:12;5.50;;;3.13;;
49584;SDS011;35491;49.142;9.210;2022-11-15T05:57:17;7.25;;;3.42;;
49584;SDS011;35491;49.142;9.210;2022-11-15T05:58:19;6.47;;;3.30;;
49584;SDS011;35491;49.142;9.210;2022-11-15T05:59:24;6.35;;;3.42;;
49584;SDS011;35491;49.142;9.210;2022-11-15T06:00:25;7.35;;;3.90;;
49584;SDS011;35491;49.142;9.210;2022-11-15T06:01:30;8.35;;;4.47;;
49584;SDS011;35491;49.142;9.210;2022-11-15T06:02:31;10.60;;;4.57;;
49584;SDS011;35491;49.142;9.210;2022-11-15T06:03:36;9.13;;;4.38;;
49584;SDS011;35491;49.142;9.210;2022-11-15T06:04:37;7.07;;;4.00;;
49584;SDS011;35491;49.142;9.210;2022-11-15T06:05:41;6.57;;;4.00;;
49584;SDS011;35491;49.142;9.210;2022-11-15T06:06:45;7.72;;;4.60;;
49584;SDS011;35491;49.142;9.210;2022-11-15T06:07:49;8.82;;;4.35;;
49584;SDS011;35491;49.142;9.210;2022-11-15T06:08:51;7.50;;;3.72;;
49584;SDS011;35491;49.142;9.210;2022-11-15T06:09:55;6.95;;;3.67;;
49584;SDS011;35491;49.142;9.210;2022-11-15T06:11:02;6.53;;;3.70;;
49584;SDS011;35491;49.142;9.210;2022-11-15T06:12:06;7.53;;;3.83;;
49584;SDS011;35491;49.142;9.210;2022-11-15T06:13:08;7.20;;;4.25;;
49584;SDS011;35491;49.142;9.210;2022-11-15T06:14:12;7.07;;;3.83;;
49584;SDS011;35491;49.142;9.210;2022-11-15T06:15:14;7.00;;;3.90;;
49584;SDS011;35491;49.142;9.210;2022-11-15T06:16:18;7.85;;;4.85;;
49584;SDS011;35491;49.142;9.210;2022-11-15T06:17:19;8.32;;;5.20;;
49584;SDS011;35491;49.142;9.210;2022-11-15T06:18:23;10.98;;;5.28;;
49584;SDS011;35491;49.142;9.210;2022-11-15T06:19:25;6.85;;;4.07;;
49584;SDS011;35491;49.142;9.210;2022-11-15T06:20:33;8.02;;;4.40;;
49584;SDS011;35491;49.142;9.210;2022-11-15T06:21:35;9.57;;;4.43;;
49584;SDS011;35491;49.142;9.210;2022-11-15T06:22:41;8.93;;;4.97;;
49584;SDS011;35491;49.142;9.210;2022-11-15T06:23:43;12.35;;;6.40;;
49584;SDS011;35491;49.142;9.210;2022-11-15T06:24:47;9.18;;;4.70;;
49584;SDS011;35491;49.142;9.210;2022-11-15T06:25:48;7.93;;;4.90;;
49584;SDS011;35491;49.142;9.210;2022-11-15T06:26:53;8.05;;;5.13;;
49584;SDS011;35491;49.142;9.210;2022-11-15T06:27:55;16.17;;;5.85;;
49584;SDS011;35491;49.142;9.210;2022-11-15T06:29:01;9.98;;;5.53;;
49584;SDS011;35491;49.142;9.210;2022-11-15T06:30:06;8.65;;;5.35;;
49584;SDS011;35491;49.142;9.210;2022-11-15T06:31:09;9.65;;;5.18;;
49584;SDS011;35491;49.142;9.210;2022-11-15T06:32:14;11.13;;;4.85;;
49584;SDS011;35491;49.142;9.210;2022-11-15T06:33:15;13.18;;;5.05;;
49584;SDS011;35491;49.142;9.210;2022-11-15T06:34:20;12.30;;;5.35;;
49584;SDS011;35491;49.142;9.210;2022-11-15T06:35:21;9.30;;;4.85;;
49584;SDS011;35491;49.142;9.210;2022-11-15T06:36:25;10.73;;;5.10;;
49584;SDS011;35491;49.142;9.210;2022-11-15T06:37:29;9.45;;;4.78;;
49584;SDS011;35491;49.142;9.210;2022-11-15T06:38:34;10.68;;;5.40;;
49584;SDS011;35491;49.142;9.210;2022-11-15T06:39:38;9.32;;;5.28;;
49584;SDS011;35491;49.142;9.210;2022-11-15T06:40:40;9.07;;;5.10;;
49584;SDS011;35491;49.142;9.210;2022-11-15T06:41:44;10.23;;;5.35;;
49584;SDS011;35491;49.142;9.210;2022-11-15T06:42:45;11.95;;;5.95;;
49584;SDS011;35491;49.142;9.210;2022-11-15T06:43:49;9.38;;;5.78;;
49584;SDS011;35491;49.142;9.210;2022-11-15T06:44:54;9.57;;;5.40;;
49584;SDS011;35491;49.142;9.210;2022-11-15T06:45:55;10.23;;;6.20;;
49584;SDS011;35491;49.142;9.210;2022-11-15T06:47:00;11.02;;;5.22;;
49584;SDS011;35491;49.142;9.210;2022-11-15T06:48:02;9.88;;;5.78;;
49584;SDS011;35491;49.142;9.210;2022-11-15T06:49:06;12.45;;;5.47;;
49584;SDS011;35491;49.142;9.210;2022-11-15T06:50:08;16.20;;;5.63;;
49584;SDS011;35491;49.142;9.210;2022-11-15T06:51:12;12.43;;;5.90;;
49584;SDS011;35491;49.142;9.210;2022-11-15T06:52:14;15.45;;;5.97;;
49584;SDS011;35491;49.142;9.210;2022-11-15T06:53:19;11.73;;;5.53;;
49584;SDS011;35491;49.142;9.210;2022-11-15T06:54:23;20.13;;;6.80;;
49584;SDS011;35491;49.142;9.210;2022-11-15T06:55:27;13.32;;;5.55;;
49584;SDS011;35491;49.142;9.210;2022-11-15T06:56:28;10.43;;;5.38;;
49584;SDS011;35491;49.142;9.210;2022-11-15T06:57:32;16.27;;;6.30;;
49584;SDS011;35491;49.142;9.210;2022-11-15T06:58:34;10.88;;;5.65;;
49584;SDS011;35491;49.142;9.210;2022-11-15T06:59:38;12.73;;;5.35;;
49584;SDS011;35491;49.142;9.210;2022-11-15T07:00:40;16.55;;;6.28;;
49584;SDS011;35491;49.142;9.210;2022-11-15T07:01:44;11.93;;;5.47;;
49584;SDS011;35491;49.142;9.210;2022-11-15T07:02:46;13.23;;;6.20;;
49584;SDS011;35491;49.142;9.210;2022-11-15T07:03:50;21.60;;;6.45;;
49584;SDS011;35491;49.142;9.210;2022-11-15T07:04:54;16.48;;;6.15;;
49584;SDS011;35491;49.142;9.210;2022-11-15T07:05:56;17.25;;;6.63;;
49584;SDS011;35491;49.142;9.210;2022-11-15T07:07:01;14.80;;;6.88;;
49584;SDS011;35491;49.142;9.210;2022-11-15T07:08:02;17.38;;;7.10;;
49584;SDS011;35491;49.142;9.210;2022-11-15T07:09:07;21.55;;;6.63;;
49584;SDS011;35491;49.142;9.210;2022-11-15T07:10:14;18.08;;;7.20;;
49584;SDS011;35491;49.142;9.210;2022-11-15T07:11:16;12.23;;;6.45;;
49584;SDS011;35491;49.142;9.210;2022-11-15T07:12:20;10.60;;;5.88;;
49584;SDS011;35491;49.142;9.210;2022-11-15T07:13:23;12.18;;;5.80;;
49584;SDS011;35491;49.142;9.210;2022-11-15T07:14:28;10.38;;;5.65;;
49584;SDS011;35491;49.142;9.210;2022-11-15T07:15:29;9.50;;;4.95;;
49584;SDS011;35491;49.142;9.210;2022-11-15T07:16:33;10.40;;;5.10;;
49584;SDS011;35491;49.142;9.210;2022-11-15T07:17:35;10.82;;;5.30;;
49584;SDS011;35491;49.142;9.210;2022-11-15T07:18:39;9.43;;;6.13;;
49584;SDS011;35491;49.142;9.210;2022-11-15T07:19:44;12.13;;;5.32;;
49584;SDS011;35491;49.142;9.210;2022-11-15T07:20:45;13.90;;;5.30;;
49584;SDS011;35491;49.142;9.210;2022-11-15T07:21:49;8.98;;;4.68;;
49584;SDS011;35491;49.142;9.210;2022-11-15T07:22:59;7.65;;;4.68;;
49584;SDS011;35491;49.142;9.210;2022-11-15T07:24:03;12.73;;;5.40;;
49584;SDS011;35491;49.142;9.210;2022-11-15T07:25:08;12.18;;;5.70;;
49584;SDS011;35491;49.142;9.210;2022-11-15T07:26:12;11.75;;;5.18;;
49584;SDS011;35491;49.142;9.210;2022-11-15T07:27:16;12.38;;;5.22;;
49584;SDS011;35491;49.142;9.210;2022-11-15T07:28:18;14.18;;;5.93;;
49584;SDS011;35491;49.142;9.210;2022-11-15T07:29:22;14.52;;;7.03;;
49584;SDS011;35491;49.142;9.210;2022-11-15T07:30:24;13.27;;;6.13;;
49584;SDS011;35491;49.142;9.210;2022-11-15T07:31:29;14.23;;;6.25;;
49584;SDS011;35491;49.142;9.210;2022-11-15T07:32:31;13.88;;;6.07;;
49584;SDS011;35491;49.142;9.210;2022-11-15T07:33:35;18.80;;;6.70;;
49584;SDS011;35491;49.142;9.210;2022-11-15T07:34:36;17.42;;;7.03;;
49584;SDS011;35491;49.142;9.210;2022-11-15T07:35:40;14.02;;;5.80;;
49584;SDS011;35491;49.142;9.210;2022-11-15T07:36:47;15.75;;;6.65;;
49584;SDS011;35491;49.142;9.210;2022-11-15T07:37:56;19.38;;;6.22;;
49584;SDS011;35491;49.142;9.210;2022-11-15T07:39:00;14.98;;;6.28;;
49584;SDS011;35491;49.142;9.210;2022-11-15T07:40:06;11.07;;;5.70;;
49584;SDS011;35491;49.142;9.210;2022-11-15T07:41:08;13.85;;;6.13;;
49584;SDS011;35491;49.142;9.210;2022-11-15T07:42:15;11.43;;;5.57;;
49584;SDS011;35491;49.142;9.210;2022-11-15T07:43:32;13.80;;;5.75;;
49584;SDS011;35491;49.142;9.210;2022-11-15T07:44:36;14.90;;;6.43;;
49584;SDS011;35491;49.142;9.210;2022-11-15T07:45:40;12.88;;;5.72;;
49584;SDS011;35491;49.142;9.210;2022-11-15T07:46:45;15.00;;;6.05;;
49584;SDS011;35491;49.142;9.210;2022-11-15T07:47:46;18.63;;;6.80;;
49584;SDS011;35491;49.142;9.210;2022-11-15T07:48:51;14.57;;;5.45;;
49584;SDS011;35491;49.142;9.210;2022-11-15T07:49:55;9.88;;;5.90;;
49584;SDS011;35491;49.142;9.210;2022-11-15T07:50:56;14.88;;;5.63;;
49584;SDS011;35491;49.142;9.210;2022-11-15T07:52:00;10.07;;;5.40;;
49584;SDS011;35491;49.142;9.210;2022-11-15T07:53:02;15.07;;;6.28;;
49584;SDS011;35491;49.142;9.210;2022-11-15T07:54:06;10.50;;;4.80;;
49584;SDS011;35491;49.142;9.210;2022-11-15T07:55:10;10.77;;;5.28;;
49584;SDS011;35491;49.142;9.210;2022-11-15T07:56:12;9.55;;;4.78;;
49584;SDS011;35491;49.142;9.210;2022-11-15T07:57:18;10.95;;;4.47;;
49584;SDS011;35491;49.142;9.210;2022-11-15T07:58:20;8.20;;;4.47;;
49584;SDS011;35491;49.142;9.210;2022-11-15T07:59:24;11.10;;;4.65;;
49584;SDS011;35491;49.142;9.210;2022-11-15T08:00:25;11.20;;;4.97;;
49584;SDS011;35491;49.142;9.210;2022-11-15T08:01:30;10.52;;;5.20;;
49584;SDS011;35491;49.142;9.210;2022-11-15T08:02:34;15.10;;;6.20;;
49584;SDS011;35491;49.142;9.210;2022-11-15T08:03:35;24.30;;;7.57;;
49584;SDS011;35491;49.142;9.210;2022-11-15T08:04:40;17.13;;;7.05;;
49584;SDS011;35491;49.142;9.210;2022-11-15T08:05:41;17.20;;;6.75;;
49584;SDS011;35491;49.142;9.210;2022-11-15T08:06:46;12.27;;;6.28;;
49584;SDS011;35491;49.142;9.210;2022-11-15T08:07:47;14.68;;;6.38;;
49584;SDS011;35491;49.142;9.210;2022-11-15T08:08:51;11.25;;;5.97;;
49584;SDS011;35491;49.142;9.210;2022-11-15T08:09:53;10.68;;;5.68;;
49584;SDS011;35491;49.142;9.210;2022-11-15T08:10:57;10.18;;;6.30;;
49584;SDS011;35491;49.142;9.210;2022-11-15T08:12:01;11.25;;;6.20;;
49584;SDS011;35491;49.142;9.210;2022-11-15T08:13:09;14.43;;;6.07;;
49584;SDS011;35491;49.142;9.210;2022-11-15T08:14:14;17.40;;;7.07;;
49584;SDS011;35491;49.142;9.210;2022-11-15T08:15:18;12.90;;;6.25;;
49584;SDS011;35491;49.142;9.210;2022-11-15T08:16:20;12.02;;;6.35;;
49584;SDS011;35491;49.142;9.210;2022-11-15T08:17:24;15.45;;;6.57;;
49584;SDS011;35491;49.142;9.210;2022-11-15T08:18:26;12.48;;;6.13;;
49584;SDS011;35491;49.142;9.210;2022-11-15T08:19:30;18.88;;;6.53;;
49584;SDS011;35491;49.142;9.210;2022-11-15T08:20:32;15.27;;;7.30;;
49584;SDS011;35491;49.142;9.210;2022-11-15T08:21:37;17.75;;;7.40;;
49584;SDS011;35491;49.142;9.210;2022-11-15T08:22:38;20.50;;;8.57;;
49584;SDS011;35491;49.142;9.210;2022-11-15T08:23:42;20.85;;;8.55;;
49584;SDS011;35491;49.142;9.210;2022-11-15T08:24:46;16.95;;;8.20;;
49584;SDS011;35491;49.142;9.210;2022-11-15T08:25:48;18.00;;;8.40;;
49584;SDS011;35491;49.142;9.210;2022-11-15T08:26:52;15.45;;;8.00;;
49584;SDS011;35491;49.142;9.210;2022-11-15T08:27:54;19.38;;;8.85;;
49584;SDS011;35491;49.142;9.210;2022-11-15T08:29:01;15.70;;;7.68;;
49584;SDS011;35491;49.142;9.210;2022-11-15T08:30:03;13.95;;;7.65;;
49584;SDS011;35491;49.142;9.210;2022-11-15T08:31:12;16.40;;;7.25;;
49584;SDS011;35491;49.142;9.210;2022-11-15T08:32:18;12.93;;;7.90;;